createdAt,value
2022-10-22T00:01:09.550Z,16.8
2022-10-22T00:06:12.509Z,17.1
2022-10-22T00:11:14.868Z,17.2
2022-10-22T00:16:17.021Z,14.9
2022-10-22T00:21:19.586Z,16.3
2022-10-22T00:26:22.011Z,19.3
2022-10-22T00:31:24.022Z,17.8
2022-10-22T00:36:26.243Z,16.3
2022-10-22T00:41:28.468Z,16.3
2022-10-22T00:46:31.267Z,15.3
2022-10-22T00:51:32.791Z,19.3
2022-10-22T00:56:35.342Z,18.5
2022-10-22T01:01:37.984Z,17
2022-10-22T01:06:40.690Z,17.4
2022-10-22T01:11:43.233Z,16.7
2022-10-22T01:16:45.419Z,16.6
2022-10-22T01:21:49.035Z,15.7
2022-10-22T01:26:51.361Z,18.1
2022-10-22T01:31:53.672Z,16.3
2022-10-22T01:36:56.686Z,14.8
2022-10-22T01:41:58.852Z,15.2
2022-10-22T01:47:01.105Z,17.1
2022-10-22T01:52:03.422Z,17.3
2022-10-22T01:57:05.884Z,17.1
2022-10-22T02:02:07.889Z,17
2022-10-22T02:07:10.304Z,18.6
2022-10-22T02:12:12.456Z,19.9
2022-10-22T02:17:14.866Z,21.2
2022-10-22T02:22:17.125Z,20.2
2022-10-22T02:27:21.690Z,20.3
2022-10-22T02:32:29.013Z,23.6
2022-10-22T02:37:31.246Z,20.5
2022-10-22T02:42:35.905Z,19.3
2022-10-22T02:47:41.057Z,20.9
2022-10-22T02:52:44.210Z,21.1
2022-10-22T02:57:46.885Z,20.5
2022-10-22T03:02:48.989Z,22.5
2022-10-22T03:07:51.363Z,20.6
2022-10-22T03:12:53.858Z,21.2
2022-10-22T03:17:56.016Z,22.3
2022-10-22T03:22:59.087Z,19.8
2022-10-22T03:28:01.470Z,21.3
2022-10-22T03:33:03.725Z,18.3
2022-10-22T03:38:05.951Z,20.5
2022-10-22T03:43:07.937Z,19.4
2022-10-22T03:48:10.113Z,18.4
2022-10-22T03:53:12.673Z,18.7
2022-10-22T03:58:15.049Z,34.2
2022-10-22T04:03:15.475Z,18.5
2022-10-22T04:08:18.183Z,20.6
2022-10-22T04:13:20.658Z,18.9
2022-10-22T04:18:22.786Z,20.4
2022-10-22T04:23:25.177Z,19.6
2022-10-22T04:28:27.342Z,19.6
2022-10-22T04:33:29.600Z,19.9
2022-10-22T04:38:31.654Z,21
2022-10-22T04:43:34.031Z,20.3
2022-10-22T04:48:36.420Z,20.6
2022-10-22T04:53:38.925Z,20.2
2022-10-22T04:58:41.343Z,20.2
2022-10-22T05:03:43.495Z,22.5
2022-10-22T05:08:46.171Z,21.8
2022-10-22T05:13:48.918Z,18
2022-10-22T05:18:50.916Z,22.3
2022-10-22T05:23:54.348Z,21.1
2022-10-22T05:28:56.482Z,18.5
2022-10-22T05:33:58.821Z,22
2022-10-22T05:39:00.779Z,18.8
2022-10-22T05:44:02.768Z,18.6
2022-10-22T05:49:04.927Z,18.7
2022-10-22T05:54:07.348Z,19.8
2022-10-22T05:59:08.461Z,21.1
2022-10-22T06:04:10.747Z,25
2022-10-22T06:09:13.140Z,17.3
2022-10-22T06:14:15.738Z,20.8
2022-10-22T06:19:17.787Z,17
2022-10-22T06:24:19.821Z,19.4
2022-10-22T06:29:21.867Z,35.5
2022-10-22T06:34:23.920Z,22.8
2022-10-22T06:39:26.193Z,30.6
2022-10-22T06:44:28.297Z,29.6
2022-10-22T06:49:30.439Z,20.6
2022-10-22T06:54:32.985Z,21.5
2022-10-22T06:59:34.989Z,24.4
2022-10-22T07:04:37.471Z,18.6
2022-10-22T07:09:40.128Z,27.2
2022-10-22T07:14:42.772Z,18.2
2022-10-22T07:19:47.240Z,16
2022-10-22T07:24:53.676Z,16.4
2022-10-22T07:29:55.861Z,16.8
2022-10-22T07:34:57.923Z,14.6
2022-10-22T07:40:02.829Z,14.1
2022-10-22T07:45:06.458Z,15.9
2022-10-22T07:50:11.444Z,17.3
2022-10-22T07:55:13.817Z,16
2022-10-22T08:00:16.021Z,14.3
2022-10-22T08:05:25.246Z,14.2
2022-10-22T08:10:27.455Z,12
2022-10-22T08:15:29.569Z,13
2022-10-22T08:20:32.993Z,11.1
2022-10-22T08:25:35.037Z,12.2
2022-10-22T08:30:37.106Z,11.5
2022-10-22T08:35:39.881Z,10.5
2022-10-22T08:40:42.053Z,11.7
2022-10-22T08:45:44.493Z,10.7
2022-10-22T08:50:46.765Z,9.3
2022-10-22T08:55:47.727Z,13
2022-10-22T09:00:50.423Z,11.4
2022-10-22T09:05:52.677Z,9.1
2022-10-22T09:10:55.874Z,8.1
2022-10-22T09:15:57.984Z,9.2
2022-10-22T09:21:00.848Z,10.5
2022-10-22T09:26:03.317Z,9.6
2022-10-22T09:31:05.487Z,9.7
2022-10-22T09:36:08.032Z,9.6
2022-10-22T09:41:10.564Z,9.8
2022-10-22T09:46:12.605Z,10.5
2022-10-22T09:51:14.799Z,9.9
2022-10-22T09:56:16.948Z,9.7
2022-10-22T10:01:19.213Z,8.5
2022-10-22T10:06:21.703Z,11.2
2022-10-22T10:11:28.119Z,7.8
2022-10-22T10:16:31.381Z,8.1
2022-10-22T10:21:33.466Z,6.1
2022-10-22T10:26:35.769Z,6.2
2022-10-22T10:31:38.048Z,6.9
2022-10-22T10:36:40.283Z,5
2022-10-22T10:41:42.601Z,7.2
2022-10-22T10:46:44.827Z,6.1
2022-10-22T10:51:47.039Z,4.4
2022-10-22T10:56:49.246Z,6.1
2022-10-22T11:01:51.329Z,5.3
2022-10-22T11:06:56.328Z,4.8
2022-10-22T11:11:55.055Z,17
2022-10-22T11:16:57.397Z,5.7
2022-10-22T11:21:59.673Z,6.3
2022-10-22T11:27:01.814Z,4.8
2022-10-22T11:32:04.773Z,5
2022-10-22T11:37:07.282Z,4
2022-10-22T11:42:09.645Z,4.6
2022-10-22T11:47:11.738Z,7.4
2022-10-22T11:52:14.070Z,5.6
2022-10-22T11:57:16.313Z,5.7
2022-10-22T12:02:18.516Z,5.1
2022-10-22T12:07:20.650Z,4.6
2022-10-22T12:12:22.608Z,6.4
2022-10-22T12:17:24.890Z,6.6
2022-10-22T12:22:26.875Z,4.2
2022-10-22T12:27:30.174Z,5.3
2022-10-22T12:32:32.122Z,8.7
2022-10-22T12:37:34.085Z,7.7
2022-10-22T12:42:36.679Z,5.3
2022-10-22T12:47:39.277Z,9.9
2022-10-22T12:52:42.932Z,14.5
2022-10-22T12:57:45.667Z,7.2
2022-10-22T13:02:49.164Z,8
2022-10-22T13:07:51.686Z,6
2022-10-22T13:12:53.736Z,7.7
2022-10-22T13:17:55.688Z,6.1
2022-10-22T13:22:57.726Z,8.2
2022-10-22T13:28:00.648Z,6.2
2022-10-22T13:33:02.635Z,8.3
2022-10-22T13:38:04.945Z,8.8
2022-10-22T13:43:06.964Z,14
2022-10-22T13:48:09.094Z,7.4
2022-10-22T13:53:11.143Z,7.5
2022-10-22T13:58:19.524Z,6.5
2022-10-22T14:03:21.986Z,8.5
2022-10-22T14:08:24.137Z,8.8
2022-10-22T14:13:26.525Z,10.1
2022-10-22T14:18:28.868Z,12.9
2022-10-22T14:23:32.759Z,9
2022-10-22T14:28:41.152Z,7.3
2022-10-22T14:33:42.359Z,7.6
2022-10-22T14:38:44.765Z,15.2
2022-10-22T14:43:46.960Z,10.2
2022-10-22T14:48:49.068Z,7.8
2022-10-22T14:53:51.175Z,26.2
2022-10-22T14:58:51.567Z,13.7
2022-10-22T15:03:54.220Z,10.5
2022-10-22T15:08:56.627Z,8.1
2022-10-22T15:13:58.775Z,9.2
2022-10-22T15:19:00.765Z,7.9
2022-10-22T15:24:02.704Z,10.4
2022-10-22T15:29:04.722Z,10.6
2022-10-22T15:34:06.656Z,14.5
2022-10-22T15:39:09.639Z,11.7
2022-10-22T15:44:12.040Z,13.1
2022-10-22T15:49:14.110Z,15.2
2022-10-22T15:54:16.414Z,15.8
2022-10-22T15:59:18.431Z,14.3
2022-10-22T16:04:20.306Z,12.5
2022-10-22T16:09:22.802Z,15.1
2022-10-22T16:14:24.849Z,22.7
2022-10-22T16:19:26.783Z,14.3
2022-10-22T16:24:28.763Z,15.4
2022-10-22T16:29:30.848Z,15.2
2022-10-22T16:34:33.022Z,11.9
2022-10-22T16:39:34.953Z,11.9
2022-10-22T16:44:37.934Z,14.2
2022-10-22T16:49:39.937Z,14
2022-10-22T16:54:41.987Z,16
2022-10-22T16:59:44.677Z,14.1
2022-10-22T17:04:46.948Z,15
2022-10-22T17:09:49.243Z,15.7
2022-10-22T17:14:51.217Z,17.3
2022-10-22T17:19:53.193Z,16.7
2022-10-22T17:24:55.204Z,15.2
2022-10-22T17:29:57.523Z,32.3
2022-10-22T17:35:00.613Z,17
2022-10-22T17:40:02.605Z,16.9
2022-10-22T17:45:04.667Z,19.3
2022-10-22T17:50:06.668Z,22.1
2022-10-22T17:55:08.603Z,20
2022-10-22T18:00:11.174Z,20.9
2022-10-22T18:05:13.537Z,24.6
2022-10-22T18:10:15.687Z,18.3
2022-10-22T18:15:18.123Z,18.1
2022-10-22T18:20:20.151Z,21.2
2022-10-22T18:25:22.138Z,22.4
2022-10-22T18:30:24.254Z,23.2
2022-10-22T18:35:26.180Z,23.3
2022-10-22T18:40:28.128Z,23.6
2022-10-22T18:45:30.181Z,27.5
2022-10-22T18:55:34.099Z,25.7
2022-10-22T19:00:36.005Z,25.1
2022-10-22T19:05:38.059Z,24.5
2022-10-22T19:10:40.582Z,26
2022-10-22T19:15:42.698Z,27.4
2022-10-22T19:20:45.190Z,27.8
2022-10-22T19:25:47.127Z,26.4
2022-10-22T19:30:49.103Z,29.1
2022-10-22T19:35:51.267Z,28.2
2022-10-22T19:40:53.251Z,31.8
2022-10-22T19:45:55.170Z,28.8
2022-10-22T19:50:59.849Z,31.4
2022-10-22T19:56:03.594Z,32.3
2022-10-22T20:01:06.229Z,30.6
2022-10-22T20:06:09.933Z,33
2022-10-22T20:11:13.770Z,49.8
2022-10-22T20:16:21.017Z,32.6
2022-10-22T20:31:36.024Z,29.9
2022-10-22T20:36:45.586Z,28.1
2022-10-22T20:41:36.667Z,26.6
2022-10-22T21:06:56.210Z,23
2022-10-22T21:16:57.887Z,23.7
2022-10-22T21:22:07.461Z,23.9
2022-10-22T21:27:04.452Z,24.8
2022-10-22T21:32:08.405Z,23.6
2022-10-22T21:37:13.009Z,24.9
2022-10-22T21:42:15.187Z,24.2
2022-10-22T21:47:19.335Z,26.2
2022-10-22T21:52:21.183Z,26.1
2022-10-22T21:57:23.258Z,22
2022-10-22T22:02:25.287Z,26
2022-10-22T22:07:27.252Z,26.9
2022-10-22T22:12:30.728Z,26.6
2022-10-22T22:17:33.785Z,24.4
2022-10-22T22:22:35.970Z,25.3
2022-10-22T22:27:38.488Z,23.8
2022-10-22T22:32:42.288Z,22.8
2022-10-22T22:37:44.790Z,25.5
2022-10-22T22:42:46.783Z,28.4
2022-10-22T22:47:48.947Z,23.5
2022-10-22T22:52:50.951Z,22.7
2022-10-22T22:57:53.093Z,22.2
2022-10-22T23:02:55.304Z,24.4
2022-10-22T23:07:57.313Z,21.5
2022-10-22T23:12:59.476Z,22
2022-10-22T23:18:01.657Z,29
2022-10-22T23:23:03.941Z,37.5
2022-10-22T23:28:05.913Z,45.2
2022-10-22T23:33:08.116Z,52.1
2022-10-22T23:38:10.337Z,51.8
2022-10-22T23:43:12.436Z,50.9
2022-10-22T23:48:15.078Z,48.6
2022-10-22T23:53:17.391Z,45.5
2022-10-22T23:58:19.679Z,42.9
